Terminal Aerodrome Forecast
Issued by NWS Binghamton, NY

Home | Current Version | Previous Version | Text Only | Print | Product List | Glossary On
Versions: 1 2 3 4 5 6 7 8 9 10 11 12 13 14 15 16 17 18 19
227
FTUS41 KBGM 082324
TAFBGM
TAF
KBGM 082324Z 0900/0924 31009KT 3SM -SN BKN011 OVC025
      TEMPO 0900/0904 1SM -SN OVC008
     FM090500 27011KT P6SM -SN OVC015
     FM091100 29010KT P6SM BKN025 OVC040
     FM091800 31013G22KT P6SM BKN035 OVC050
     FM092200 32009KT P6SM BKN040=

USA.gov is the U.S. government's official web portal to all federal, state and local government web resources and services.